Time;durP1;ratioP1;P1;durP2;ratioP2;P2;SDS_P1;SDS_P2;PMS_P1;PMS_P2;Temp;Humidity;BMP_temperature;BMP_pressure;BME280_temperature;BME280_humidity;BME280_pressure;Samples;Min_cycle;Max_cycle;Signal;HPM_P1;HPM_P2
2023/10/28 00:01:13;;;;;;;1.38;0.68;;;11.30;85.40;;;12.78;60.53;96035.81;5012720;28;20050;-53
2023/10/28 00:03:41;;;;;;;0.30;0.30;;;11.20;86.20;;;12.81;60.59;96039.91;5004733;28;20057;-49
2023/10/28 00:06:09;;;;;;;0.28;0.28;;;11.20;86.10;;;12.79;60.51;96041.97;5012919;28;20046;-43
2023/10/28 00:08:37;;;;;;;0.40;0.40;;;11.30;86.00;;;12.77;60.63;96044.03;5012355;28;20042;-42
2023/10/28 00:11:06;;;;;;;0.50;0.50;;;11.30;85.70;;;12.87;60.38;96043.56;5012531;28;20386;-43
2023/10/28 00:13:34;;;;;;;0.50;0.50;;;11.30;85.60;;;12.79;60.61;96040.16;5012421;28;20049;-40
2023/10/28 00:16:01;;;;;;;0.75;0.55;;;11.30;85.50;;;12.76;60.45;96048.56;5011338;28;20042;-43
2023/10/28 00:18:29;;;;;;;0.45;0.43;;;11.30;84.80;;;12.75;60.36;96038.09;5012451;28;20451;-41
2023/10/28 00:20:57;;;;;;;0.70;0.50;;;11.20;85.00;;;12.76;60.34;96051.25;5012177;28;20073;-41
2023/10/28 00:23:25;;;;;;;0.77;0.60;;;11.20;86.00;;;12.67;60.63;96049.84;5012767;28;20068;-41
2023/10/28 00:26:04;;;;;;;0.43;0.43;;;11.20;85.60;;;12.66;60.52;96055.38;5012316;28;20046;-43
2023/10/28 00:28:35;;;;;;;0.57;0.50;;;11.10;85.60;;;12.68;61.06;96058.66;5012008;28;20042;-42
2023/10/28 00:31:04;;;;;;;0.80;0.40;;;11.10;85.80;;;12.69;60.76;96055.78;5012024;28;20144;-45
2023/10/28 00:33:34;;;;;;;0.40;0.40;;;11.10;86.30;;;12.74;60.49;96063.19;5010822;28;20298;-44
2023/10/28 00:36:11;;;;;;;0.57;0.45;;;11.10;85.70;;;12.68;60.64;96066.69;5011387;28;20054;-42
2023/10/28 00:38:39;;;;;;;1.17;0.43;;;11.10;86.30;;;12.57;61.03;96052.97;5011830;28;20053;-41
2023/10/28 00:41:07;;;;;;;0.68;0.40;;;11.10;87.10;;;12.58;61.11;96061.78;5010737;28;20061;-42
2023/10/28 00:43:34;;;;;;;0.40;0.40;;;11.00;86.70;;;12.51;61.21;96061.84;5012115;28;20045;-42
2023/10/28 00:46:05;;;;;;;1.15;0.47;;;11.00;87.50;;;12.51;61.53;96063.69;5012134;28;20049;-41
2023/10/28 00:48:34;;;;;;;0.47;0.47;;;11.00;88.10;;;12.60;61.39;96062.41;5011042;28;20109;-40
2023/10/28 00:51:02;;;;;;;0.60;0.40;;;11.10;88.30;;;12.64;61.51;96066.31;5010505;28;20046;-40
2023/10/28 00:53:31;;;;;;;2.88;0.88;;;11.10;88.40;;;12.67;61.44;96073.06;5002506;28;20397;-41
2023/10/28 00:56:01;;;;;;;0.50;0.20;;;11.10;88.50;;;12.58;61.55;96075.97;5011972;28;20036;-43
2023/10/28 00:58:30;;;;;;;0.35;0.32;;;11.00;88.30;;;12.62;61.50;96071.03;5000926;28;20049;-43
2023/10/28 01:00:58;;;;;;;0.77;0.60;;;11.00;88.70;;;12.68;61.30;96075.53;5009982;28;20069;-40
2023/10/28 01:03:28;;;;;;;0.30;0.30;;;11.00;88.60;;;12.63;61.50;96079.88;5011398;28;20044;-40
2023/10/28 01:05:57;;;;;;;1.73;0.40;;;11.00;89.30;;;12.60;61.54;96070.41;5010343;28;20049;-43
2023/10/28 01:08:25;;;;;;;0.88;0.50;;;11.00;89.40;;;12.63;61.40;96080.66;5002361;28;20069;-41
2023/10/28 01:11:01;;;;;;;0.80;0.70;;;10.90;90.00;;;12.55;61.71;96076.41;5010239;28;20049;-46
2023/10/28 01:13:29;;;;;;;0.50;0.50;;;10.90;90.70;;;12.58;61.68;96080.47;5011526;28;20045;-40
2023/10/28 01:15:59;;;;;;;1.95;0.60;;;10.90;90.70;;;12.52;62.25;96078.66;5010335;28;20057;-44
2023/10/28 01:18:27;;;;;;;0.40;0.33;;;10.80;90.40;;;12.48;61.99;96080.13;5009918;28;20386;-40
2023/10/28 01:20:55;;;;;;;0.30;0.25;;;10.80;91.00;;;12.50;61.96;96083.41;5011076;28;20045;-40
2023/10/28 01:23:22;;;;;;;0.80;0.47;;;10.80;91.70;;;12.48;61.94;96074.78;5009969;28;20037;-41
2023/10/28 01:25:50;;;;;;;0.47;0.47;;;10.80;91.30;;;12.49;62.01;96079.09;5018159;28;20355;-41
2023/10/28 01:28:18;;;;;;;1.17;0.40;;;10.80;91.00;;;12.46;62.06;96071.50;5010013;28;20046;-45
2023/10/28 01:30:46;;;;;;;0.40;0.40;;;10.80;91.30;;;12.31;62.52;96075.25;5010595;28;20041;-41
2023/10/28 01:33:14;;;;;;;0.50;0.50;;;10.70;91.80;;;12.31;62.44;96080.59;5010263;28;20045;-45
2023/10/28 01:35:42;;;;;;;0.90;0.60;;;10.70;91.90;;;12.24;62.52;96079.78;5010461;28;20518;-41
2023/10/28 01:38:09;;;;;;;0.80;0.40;;;10.60;91.90;;;12.15;62.96;96067.69;5009883;28;20425;-42
2023/10/28 01:40:37;;;;;;;0.40;0.40;;;10.60;92.60;;;12.05;63.36;96084.13;5009141;28;20058;-42
2023/10/28 01:43:05;;;;;;;0.40;0.30;;;10.50;92.10;;;11.94;63.42;96088.28;5010180;28;20528;-41
2023/10/28 01:45:32;;;;;;;1.55;0.40;;;10.60;92.80;;;11.92;63.54;96092.16;5010492;28;20054;-43
2023/10/28 01:48:00;;;;;;;1.00;0.50;;;10.60;92.10;;;11.96;63.54;96090.72;5010947;28;20042;-42
2023/10/28 01:50:28;;;;;;;0.43;0.40;;;10.60;91.70;;;12.04;63.36;96101.19;5008421;28;20057;-41
2023/10/28 01:52:55;;;;;;;0.93;0.93;;;10.70;91.50;;;12.12;63.40;96098.28;5009786;28;20050;-41
2023/10/28 01:55:24;;;;;;;0.73;0.65;;;10.70;91.30;;;12.23;63.12;96104.81;5011158;28;20045;-42
2023/10/28 01:57:52;;;;;;;0.90;0.57;;;10.70;90.90;;;12.21;62.81;96109.53;5001983;28;20046;-43
2023/10/28 02:00:19;;;;;;;1.45;0.50;;;10.70;89.50;;;12.15;62.60;96113.06;5008529;28;20084;-44
2023/10/28 02:02:47;;;;;;;1.13;0.50;;;10.70;89.60;;;12.04;62.85;96108.34;5010892;28;20057;-42
2023/10/28 02:05:16;;;;;;;0.60;0.60;;;10.70;88.00;;;12.17;62.44;96105.66;5009471;28;20069;-44
2023/10/28 02:07:45;;;;;;;1.02;0.47;;;10.80;88.80;;;12.02;62.60;96097.91;5008835;28;20050;-43
2023/10/28 02:10:13;;;;;;;0.60;0.50;;;10.70;87.70;;;12.11;62.41;96109.16;5010447;28;20050;-42
2023/10/28 02:12:41;;;;;;;0.93;0.50;;;10.70;88.20;;;11.89;62.65;96101.41;5009022;28;20050;-46
2023/10/28 02:15:09;;;;;;;4.17;1.67;;;10.60;88.60;;;12.02;62.55;96106.72;5013442;28;20050;-46
2023/10/28 02:17:38;;;;;;;0.63;0.40;;;10.60;88.10;;;12.09;61.94;96114.69;5013395;28;20077;-43
2023/10/28 02:20:06;;;;;;;1.57;0.53;;;10.60;88.00;;;12.15;61.79;96121.06;5013333;28;20041;-44
2023/10/28 02:22:35;;;;;;;1.07;0.63;;;10.70;87.70;;;12.20;61.73;96110.59;5013309;28;20057;-44
2023/10/28 02:25:04;;;;;;;1.10;0.68;;;10.60;87.80;;;12.15;61.86;96116.53;5013558;28;20049;-44
2023/10/28 02:27:32;;;;;;;2.28;0.45;;;10.60;87.80;;;12.14;61.54;96125.59;5014566;28;20046;-41
2023/10/28 02:30:00;;;;;;;0.40;0.40;;;10.50;88.30;;;12.13;61.46;96112.44;5013403;28;20277;-42
2023/10/28 02:32:28;;;;;;;0.93;0.40;;;10.60;88.40;;;12.14;61.63;96111.44;5014900;28;20049;-41
2023/10/28 02:34:56;;;;;;;0.53;0.40;;;10.60;88.10;;;12.18;61.30;96118.78;5012460;28;20045;-41
2023/10/28 02:37:24;;;;;;;0.87;0.50;;;10.60;87.60;;;12.19;61.11;96123.13;5013229;28;20046;-42
2023/10/28 02:39:53;;;;;;;2.00;0.80;;;10.60;87.40;;;12.14;61.16;96114.91;5013011;28;20050;-42
2023/10/28 02:42:22;;;;;;;1.03;0.70;;;10.60;87.20;;;12.16;60.95;96123.53;5012909;28;20052;-46
2023/10/28 02:44:50;;;;;;;0.87;0.57;;;10.50;87.30;;;12.19;61.13;96119.59;5014501;28;20054;-46
2023/10/28 02:47:18;;;;;;;1.83;0.70;;;10.50;86.20;;;12.19;60.79;96120.44;5014144;28;20057;-43
2023/10/28 02:49:45;;;;;;;2.60;0.60;;;10.60;86.40;;;12.20;60.86;96122.06;5013768;28;20748;-42
2023/10/28 02:52:13;;;;;;;2.50;0.70;;;10.60;86.00;;;12.19;60.86;96127.63;5014691;28;20042;-42
2023/10/28 02:54:41;;;;;;;3.83;0.80;;;10.50;86.40;;;12.19;60.45;96122.28;5012864;28;20473;-42
2023/10/28 02:57:10;;;;;;;1.73;1.00;;;10.50;85.90;;;12.18;60.50;96117.97;4996869;28;20057;-43
2023/10/28 02:59:37;;;;;;;1.23;0.70;;;10.50;87.40;;;12.22;60.62;96127.22;5013758;28;20050;-43
2023/10/28 03:02:05;;;;;;;1.83;1.02;;;10.50;85.90;;;12.19;60.62;96116.94;5012224;28;20050;-44
2023/10/28 03:04:33;;;;;;;2.38;0.90;;;10.40;86.40;;;12.19;60.46;96124.94;5012949;28;20053;-43
2023/10/28 03:07:00;;;;;;;1.73;0.90;;;10.40;87.30;;;12.22;60.83;96116.53;5012478;28;20583;-43
2023/10/28 03:09:30;;;;;;;3.20;0.93;;;10.40;87.70;;;12.20;60.52;96121.25;5012470;28;20046;-46
2023/10/28 03:11:58;;;;;;;1.53;0.83;;;10.40;87.80;;;12.19;60.72;96122.28;5012849;28;20528;-45
2023/10/28 03:14:26;;;;;;;3.83;1.00;;;10.40;87.80;;;12.12;60.75;96119.63;5012363;28;20049;-43
2023/10/28 03:16:53;;;;;;;1.45;0.80;;;10.40;88.20;;;12.08;60.95;96120.25;5012439;28;20058;-43
2023/10/28 03:19:21;;;;;;;3.07;1.00;;;10.30;88.10;;;12.12;60.91;96114.31;5020639;28;20061;-42
2023/10/28 03:21:49;;;;;;;4.43;1.00;;;10.40;88.10;;;12.16;60.87;96114.72;5020193;28;20049;-45
2023/10/28 03:24:17;;;;;;;3.43;1.27;;;10.50;87.20;;;12.18;60.79;96117.97;5013185;28;20429;-41
2023/10/28 03:26:44;;;;;;;4.63;1.00;;;10.50;86.60;;;12.26;60.53;96120.41;5013315;28;20038;-44
2023/10/28 03:29:12;;;;;;;8.43;1.10;;;10.60;86.30;;;12.26;60.55;96130.28;5013393;28;20046;-42
2023/10/28 03:31:40;;;;;;;2.10;0.80;;;10.70;85.90;;;12.18;60.50;96129.47;5013302;28;20042;-43
2023/10/28 03:34:07;;;;;;;1.98;0.93;;;10.70;85.40;;;12.20;60.44;96134.59;5013660;28;20057;-41
2023/10/28 03:36:35;;;;;;;3.23;1.33;;;10.70;84.70;;;12.16;60.66;96115.53;5013213;28;20367;-42
2023/10/28 03:39:03;;;;;;;3.77;2.20;;;10.70;85.00;;;12.20;60.52;96124.75;5013493;28;20520;-42
2023/10/28 03:41:32;;;;;;;7.53;3.38;;;10.80;84.90;;;12.22;60.75;96135.22;5012925;28;20057;-41
2023/10/28 03:44:01;;;;;;;6.53;1.90;;;10.80;84.50;;;12.23;60.59;96120.00;5013214;28;20048;-42
2023/10/28 03:46:28;;;;;;;5.30;2.00;;;10.80;84.70;;;12.22;60.59;96121.88;5012972;28;20421;-43
2023/10/28 03:48:56;;;;;;;2.90;1.50;;;10.80;84.60;;;12.17;60.79;96121.66;5013087;28;20072;-45
2023/10/28 03:51:24;;;;;;;2.15;1.33;;;10.80;84.50;;;12.07;61.01;96118.63;5012992;28;20049;-43
2023/10/28 03:53:51;;;;;;;2.70;1.20;;;10.70;85.70;;;12.10;61.33;96129.69;5012142;28;20086;-41
2023/10/28 03:56:19;;;;;;;2.47;1.20;;;10.70;86.40;;;12.11;61.55;96127.84;5013026;28;20042;-45
2023/10/28 03:58:46;;;;;;;5.88;1.17;;;10.80;86.40;;;12.07;61.81;96130.09;5011199;28;20054;-42
2023/10/28 04:01:15;;;;;;;2.93;1.53;;;10.70;87.10;;;11.94;62.12;96133.63;5011607;28;20046;-42
2023/10/28 04:03:43;;;;;;;5.67;1.40;;;10.60;86.80;;;12.06;61.88;96125.81;5013034;28;20041;-45
2023/10/28 04:06:10;;;;;;;3.30;1.70;;;10.70;87.90;;;12.01;61.92;96126.41;5013065;28;20080;-45
2023/10/28 04:08:38;;;;;;;4.22;1.60;;;10.70;87.20;;;12.07;61.84;96119.44;5012587;28;20050;-43
2023/10/28 04:11:06;;;;;;;3.47;1.93;;;10.70;86.50;;;12.19;61.45;96114.28;5012353;28;20038;-41
2023/10/28 04:13:33;;;;;;;2.72;1.63;;;10.80;86.80;;;12.07;61.77;96130.09;5012841;28;20049;-46
2023/10/28 04:16:01;;;;;;;3.33;1.27;;;10.70;86.70;;;12.07;61.89;96127.44;5012436;28;20429;-47
2023/10/28 04:18:29;;;;;;;3.90;1.10;;;10.70;87.20;;;12.11;61.67;96122.50;5008113;28;20049;-42
2023/10/28 04:20:56;;;;;;;4.60;1.30;;;10.70;87.20;;;11.99;62.21;96124.97;5012242;28;20053;-42
2023/10/28 04:23:24;;;;;;;4.50;1.27;;;10.60;87.50;;;12.03;62.17;96112.88;5012233;28;20617;-44
2023/10/28 04:25:52;;;;;;;4.23;1.30;;;10.60;88.30;;;12.11;61.84;96114.50;5012474;28;20061;-40
2023/10/28 04:28:20;;;;;;;6.90;1.97;;;10.60;87.40;;;12.09;61.64;96113.88;5011380;28;20064;-44
2023/10/28 04:30:58;;;;;;;2.72;1.08;;;10.60;88.30;;;12.08;61.58;96109.56;5012254;28;20053;-42
2023/10/28 04:33:27;;;;;;;3.90;1.55;;;10.70;87.50;;;12.11;61.82;96114.50;5012365;28;20048;-44
2023/10/28 04:35:55;;;;;;;4.90;1.47;;;10.70;87.50;;;12.15;61.43;96105.06;5011031;28;20430;-41
2023/10/28 04:38:23;;;;;;;1.70;1.00;;;10.70;86.40;;;12.15;61.13;96102.38;5012242;28;20061;-42
2023/10/28 04:40:51;;;;;;;2.50;1.13;;;10.60;86.80;;;12.16;61.10;96101.38;5012001;28;20493;-42
2023/10/28 04:43:21;;;;;;;1.70;1.00;;;10.60;86.10;;;12.17;60.88;96105.66;5012182;28;20053;-42
2023/10/28 04:45:50;;;;;;;4.00;2.43;;;10.60;86.30;;;12.10;61.05;96107.53;5011852;28;20058;-43
2023/10/28 04:48:18;;;;;;;3.87;1.20;;;10.60;85.80;;;12.12;60.72;96110.81;5011552;28;20045;-41
2023/10/28 04:50:48;;;;;;;4.90;1.40;;;10.50;86.10;;;12.14;60.55;96101.56;5011587;28;20042;-43
2023/10/28 04:53:16;;;;;;;2.30;1.03;;;10.60;85.60;;;12.10;60.61;96110.22;5012032;28;20037;-42
2023/10/28 04:55:44;;;;;;;1.48;0.85;;;10.60;85.10;;;12.04;60.55;96113.69;5010574;28;20205;-45
2023/10/28 04:58:12;;;;;;;1.47;1.10;;;10.60;84.10;;;11.95;60.52;96123.75;5011706;28;20428;-46
2023/10/28 05:00:40;;;;;;;3.40;1.10;;;10.60;84.10;;;11.94;60.58;96124.78;5010787;28;20057;-44
2023/10/28 05:03:08;;;;;;;2.23;0.90;;;10.60;83.80;;;11.98;60.29;96124.19;5012019;28;20133;-42
2023/10/28 05:05:37;;;;;;;3.30;0.98;;;10.60;83.10;;;11.99;60.49;96114.31;5012001;28;20053;-44
2023/10/28 05:08:05;;;;;;;2.80;1.20;;;10.60;83.10;;;12.09;60.19;96112.03;5011485;28;20073;-42
2023/10/28 05:10:33;;;;;;;4.07;1.33;;;10.70;83.50;;;12.05;59.97;96104.66;5011345;28;20049;-41
2023/10/28 05:13:00;;;;;;;3.43;2.03;;;10.60;83.50;;;12.07;60.10;96108.75;5011673;28;20053;-42
2023/10/28 05:15:28;;;;;;;3.60;0.80;;;10.60;83.30;;;12.07;59.78;96110.63;5010566;28;20057;-42
2023/10/28 05:17:56;;;;;;;2.33;1.40;;;10.50;83.50;;;12.08;59.96;96105.06;5011407;28;20042;-42
2023/10/28 05:20:24;;;;;;;1.60;1.40;;;10.60;83.60;;;12.10;59.97;96104.88;5011004;28;20065;-42
2023/10/28 05:22:52;;;;;;;1.40;0.70;;;10.60;83.60;;;12.07;59.83;96103.41;5011508;28;20054;-42
2023/10/28 05:25:20;;;;;;;2.13;1.10;;;10.50;83.30;;;12.10;59.63;96094.22;5011347;28;20528;-42
2023/10/28 05:27:49;;;;;;;2.13;1.17;;;10.50;83.70;;;12.00;59.82;96103.44;5011326;28;20121;-42
2023/10/28 05:30:17;;;;;;;4.33;1.70;;;10.50;83.70;;;12.00;59.74;96107.97;5011153;28;20148;-42
2023/10/28 05:32:45;;;;;;;4.15;2.35;;;10.40;84.00;;;11.97;59.69;96111.84;5011386;28;20042;-42
2023/10/28 05:35:13;;;;;;;2.30;1.20;;;10.40;84.40;;;11.96;59.62;96114.72;5003606;28;20046;-43
2023/10/28 05:37:41;;;;;;;2.57;1.43;;;10.30;84.60;;;11.89;59.85;96125.41;5010831;28;20041;-41
2023/10/28 05:40:13;;;;;;;3.65;1.60;;;10.30;84.30;;;11.83;60.06;96118.22;5010640;28;20532;-41
2023/10/28 05:42:41;;;;;;;3.23;1.50;;;10.30;84.00;;;11.87;59.80;96122.09;5011232;28;20050;-41
2023/10/28 05:45:10;;;;;;;7.05;3.25;;;10.30;84.60;;;11.91;59.76;96123.34;5010846;28;20053;-43
2023/10/28 05:47:38;;;;;;;2.70;1.50;;;10.30;84.00;;;11.90;60.02;96123.56;5010658;28;20033;-45
2023/10/28 05:50:07;;;;;;;4.60;2.03;;;10.30;84.20;;;11.83;59.99;96123.53;5010485;28;20038;-43
2023/10/28 05:52:35;;;;;;;2.73;1.87;;;10.30;84.20;;;11.82;60.17;96136.06;5011080;28;20033;-41
2023/10/28 05:55:03;;;;;;;7.13;2.43;;;10.20;84.50;;;11.81;59.94;96133.59;5010861;28;20037;-42
2023/10/28 05:57:31;;;;;;;4.07;1.07;;;10.30;84.30;;;11.87;60.16;96143.44;5010953;28;20046;-43
2023/10/28 05:59:58;;;;;;;3.80;1.30;;;10.30;84.70;;;11.82;59.78;96143.22;5017554;28;20520;-41
2023/10/28 06:02:26;;;;;;;2.60;1.37;;;10.20;84.60;;;11.88;59.93;96142.38;5009058;28;20489;-43
2023/10/28 06:04:54;;;;;;;4.43;1.50;;;10.20;84.80;;;11.87;60.11;96140.75;5011487;28;20401;-45
2023/10/28 06:07:21;;;;;;;2.73;1.37;;;10.30;85.00;;;11.86;59.99;96152.44;5010733;28;20329;-42
2023/10/28 06:09:49;;;;;;;2.30;1.30;;;10.30;84.10;;;11.81;60.04;96154.91;5010713;28;20042;-44
2023/10/28 06:12:17;;;;;;;3.53;1.10;;;10.30;84.30;;;11.78;60.17;96153.47;5010950;28;20053;-43
2023/10/28 06:14:44;;;;;;;10.70;2.00;;;10.30;83.80;;;11.78;59.96;96165.97;5010964;28;20049;-41
2023/10/28 06:17:13;;;;;;;2.80;1.57;;;10.30;83.80;;;11.79;59.78;96163.13;5009100;28;20038;-43
2023/10/28 06:19:41;;;;;;;2.93;1.00;;;10.30;83.00;;;11.84;59.74;96167.81;5010625;28;20124;-44
2023/10/28 06:22:11;;;;;;;3.63;1.47;;;10.40;82.60;;;11.77;60.18;96169.69;5010661;28;20053;-43
2023/10/28 06:24:39;;;;;;;4.00;1.50;;;10.40;83.10;;;11.81;60.26;96170.91;5010792;28;20046;-46
2023/10/28 06:27:08;;;;;;;2.30;1.20;;;10.40;82.80;;;11.83;59.77;96179.53;5010267;28;20062;-43
2023/10/28 06:29:37;;;;;;;4.70;1.53;;;10.50;83.10;;;11.79;60.12;96183.63;5010487;28;20090;-44
2023/10/28 06:32:06;;;;;;;4.17;1.30;;;10.50;82.70;;;11.88;59.77;96173.56;5010675;28;20430;-45
2023/10/28 06:34:34;;;;;;;3.78;1.70;;;10.50;82.70;;;11.91;59.71;96184.69;5010308;28;20049;-44
2023/10/28 06:37:02;;;;;;;4.07;1.33;;;10.60;82.20;;;11.97;59.73;96189.19;5010437;28;20038;-45
2023/10/28 06:39:34;;;;;;;2.27;1.30;;;10.60;82.30;;;11.85;59.66;96182.00;5003903;28;20049;-43
2023/10/28 06:42:03;;;;;;;3.00;1.30;;;10.60;81.80;;;11.90;59.90;96190.22;5011081;28;20046;-44
2023/10/28 06:44:33;;;;;;;3.70;1.40;;;10.60;81.60;;;11.91;59.86;96187.34;5009752;28;20046;-44
2023/10/28 06:47:01;;;;;;;2.17;0.98;;;10.60;81.60;;;11.83;59.75;96199.00;5010313;28;20060;-42
2023/10/28 06:49:28;;;;;;;4.00;1.23;;;10.60;81.70;;;11.89;59.93;96204.56;5010162;28;20370;-43
2023/10/28 06:51:56;;;;;;;1.33;0.80;;;10.60;82.30;;;12.03;59.54;96208.88;5007380;28;20406;-42
2023/10/28 06:54:24;;;;;;;1.30;0.93;;;10.70;81.60;;;12.12;59.42;96206.84;5004643;28;20041;-43
2023/10/28 06:56:52;;;;;;;1.90;0.83;;;10.80;80.60;;;12.11;59.24;96205.19;5004824;28;20405;-42
2023/10/28 06:59:19;;;;;;;3.50;1.33;;;10.80;81.60;;;12.20;59.31;96210.13;5011096;28;20045;-42
2023/10/28 07:01:48;;;;;;;4.40;1.20;;;10.90;80.80;;;12.19;59.42;96216.50;5010460;28;20042;-41
2023/10/28 07:04:15;;;;;;;2.63;1.13;;;10.90;80.70;;;12.24;59.23;96220.38;5013995;28;20414;-43
2023/10/28 07:06:43;;;;;;;2.40;1.07;;;11.00;79.50;;;12.34;58.86;96228.78;5014036;28;20052;-42
2023/10/28 07:09:11;;;;;;;2.22;0.93;;;11.00;79.70;;;12.31;58.97;96229.19;5014252;28;20049;-43
2023/10/28 07:11:39;;;;;;;1.93;0.90;;;11.00;79.80;;;12.41;58.84;96224.28;5013650;28;20042;-43
2023/10/28 07:14:07;;;;;;;1.65;0.75;;;11.10;79.90;;;12.45;58.83;96227.34;5014090;28;20042;-43
2023/10/28 07:16:34;;;;;;;2.30;1.43;;;11.10;79.10;;;12.50;58.66;96230.19;5014451;28;20042;-42
2023/10/28 07:19:02;;;;;;;1.83;1.17;;;11.20;79.30;;;12.53;58.58;96238.63;5013885;28;20415;-42
2023/10/28 07:21:30;;;;;;;1.13;0.75;;;11.20;79.40;;;12.54;58.28;96242.94;5013538;28;20050;-41
2023/10/28 07:23:57;;;;;;;0.85;0.77;;;11.20;79.30;;;12.55;58.34;96239.22;5014503;28;20057;-42
2023/10/28 07:26:27;;;;;;;3.55;1.30;;;11.20;78.90;;;12.62;58.34;96244.56;5014226;28;20054;-41
2023/10/28 07:28:55;;;;;;;4.17;1.20;;;11.30;79.40;;;12.61;58.19;96238.38;5013651;28;20046;-42
2023/10/28 07:31:22;;;;;;;3.05;0.82;;;11.30;78.90;;;12.64;58.45;96249.69;5005385;28;20045;-44
2023/10/28 07:33:50;;;;;;;1.70;1.00;;;11.30;79.00;;;12.54;58.14;96245.63;5013520;28;20046;-43
2023/10/28 07:36:18;;;;;;;2.15;1.35;;;11.20;78.20;;;12.59;58.44;96264.47;5013159;28;20046;-42
2023/10/28 07:38:46;;;;;;;2.03;1.10;;;11.30;78.40;;;12.66;58.14;96263.63;5013406;28;20072;-42
2023/10/28 07:41:14;;;;;;;2.97;1.33;;;11.30;78.30;;;12.71;57.97;96258.50;5011835;28;20046;-48
2023/10/28 07:43:42;;;;;;;4.13;1.27;;;11.30;79.00;;;12.73;58.12;96267.13;5003945;28;20046;-44
2023/10/28 07:46:10;;;;;;;2.17;1.30;;;11.40;78.40;;;12.68;58.12;96262.44;5013352;28;20060;-43
2023/10/28 07:48:37;;;;;;;1.45;0.98;;;11.40;78.40;;;12.73;58.32;96267.94;5020290;28;20045;-46
2023/10/28 07:51:05;;;;;;;5.82;1.40;;;11.50;78.30;;;12.86;58.04;96279.66;5012944;28;20042;-47
2023/10/28 07:53:32;;;;;;;3.08;1.10;;;11.60;78.50;;;12.87;58.09;96276.78;5013440;28;20048;-46
2023/10/28 07:56:00;;;;;;;2.47;1.20;;;11.60;78.10;;;12.90;58.14;96283.53;5012832;28;20037;-46
2023/10/28 07:58:29;;;;;;;1.88;1.13;;;11.60;77.90;;;12.94;57.91;96277.56;5013089;28;20049;-45
2023/10/28 08:01:14;;;;;;;2.92;1.30;;;11.70;78.00;;;13.01;57.75;96274.88;5012846;28;20046;-47
2023/10/28 08:03:45;;;;;;;2.90;1.45;;;11.80;76.70;;;13.10;57.83;96270.94;5007269;28;20486;-44
2023/10/28 08:06:13;;;;;;;2.22;1.13;;;11.90;76.80;;;13.12;57.98;96278.75;5012388;28;20494;-44
2023/10/28 08:09:01;;;;;;;2.25;0.90;;;11.90;77.00;;;13.15;57.51;96265.78;5012834;28;20046;-45
2023/10/28 08:11:30;;;;;;;2.58;1.20;;;12.10;76.00;;;13.19;57.60;96271.53;5004469;28;20098;-45
2023/10/28 08:13:57;;;;;;;1.52;0.82;;;12.20;76.20;;;13.34;57.72;96277.47;5012769;28;20045;-46
2023/10/28 08:16:25;;;;;;;4.75;1.08;;;12.30;76.30;;;13.39;57.21;96285.66;5012482;28;20041;-46
2023/10/28 08:18:53;;;;;;;1.92;1.38;;;12.30;75.30;;;13.44;57.21;96293.06;5012626;28;20057;-45
2023/10/28 08:21:22;;;;;;;3.67;1.23;;;12.40;75.40;;;13.45;57.07;96283.97;5012408;28;20061;-42
2023/10/28 08:23:49;;;;;;;2.97;1.42;;;12.40;75.00;;;13.51;57.35;96288.50;5012876;28;20041;-45
2023/10/28 08:26:19;;;;;;;2.50;1.02;;;12.50;74.20;;;13.57;57.00;96300.19;5012299;28;20050;-45
2023/10/28 08:28:49;;;;;;;4.00;1.25;;;12.50;74.50;;;13.64;56.80;96295.63;5012510;28;20106;-43
2023/10/28 08:31:17;;;;;;;4.30;1.40;;;12.50;73.80;;;13.65;56.66;96286.59;5012111;28;20497;-46
2023/10/28 08:33:44;;;;;;;3.92;1.10;;;12.60;74.00;;;13.71;56.40;96296.41;5012501;28;20416;-44
2023/10/28 08:36:12;;;;;;;5.32;1.00;;;12.60;74.10;;;13.67;55.99;96300.56;5019528;28;20041;-44
2023/10/28 08:38:40;;;;;;;2.92;1.10;;;12.60;72.30;;;13.78;56.29;96299.91;5012208;28;20038;-44
2023/10/28 08:41:08;;;;;;;5.80;2.28;;;12.70;73.70;;;13.86;56.06;96289.94;5011736;28;20439;-46
2023/10/28 08:43:36;;;;;;;3.08;1.42;;;12.70;72.50;;;13.92;56.02;96294.44;5012379;28;20057;-44
2023/10/28 08:46:05;;;;;;;3.42;0.90;;;12.70;73.50;;;13.96;56.08;96301.03;5012096;28;20046;-45
2023/10/28 08:48:34;;;;;;;2.28;1.13;;;12.80;74.30;;;13.99;56.03;96306.75;5011047;28;20425;-41
2023/10/28 08:51:04;;;;;;;2.10;1.15;;;12.80;73.60;;;14.05;55.91;96305.06;5011720;28;20147;-46
2023/10/28 08:53:33;;;;;;;3.00;1.27;;;12.80;72.30;;;14.03;55.66;96312.47;5004243;28;20049;-46
2023/10/28 08:56:03;;;;;;;4.00;1.20;;;12.80;72.80;;;14.04;55.13;96306.13;5019253;28;20532;-46
2023/10/28 08:58:31;;;;;;;2.20;1.20;;;12.80;71.50;;;14.03;55.12;96304.47;5012093;28;20052;-45
2023/10/28 09:00:59;;;;;;;2.10;1.45;;;12.90;72.00;;;14.05;55.25;96307.75;5011489;28;20046;-46
2023/10/28 09:03:30;;;;;;;2.30;1.13;;;12.90;71.90;;;13.95;55.03;96321.59;5010534;28;20505;-44
2023/10/28 09:06:01;;;;;;;1.40;1.10;;;12.90;70.80;;;14.02;54.70;96315.41;5012027;28;20037;-42
2023/10/28 09:08:29;;;;;;;2.47;1.10;;;12.90;70.90;;;14.02;54.50;96312.72;5018816;28;20046;-44
2023/10/28 09:10:57;;;;;;;2.60;1.00;;;13.00;69.70;;;14.01;54.40;96311.88;5010249;28;20034;-45
2023/10/28 09:13:25;;;;;;;1.52;0.90;;;13.00;70.30;;;14.08;54.51;96306.50;5011387;28;20069;-43
2023/10/28 09:15:53;;;;;;;2.20;1.05;;;13.00;70.70;;;14.22;54.75;96320.63;5011857;28;20046;-43
2023/10/28 09:18:20;;;;;;;2.22;1.02;;;13.10;71.30;;;14.24;54.42;96316.69;5011449;28;20033;-43
2023/10/28 09:20:48;;;;;;;4.47;1.98;;;13.20;71.00;;;14.22;54.50;96317.94;5011437;28;20501;-43
2023/10/28 09:23:17;;;;;;;2.40;1.25;;;13.20;70.70;;;14.34;54.49;96313.53;5009530;28;20068;-42
2023/10/28 09:25:46;;;;;;;3.88;2.03;;;13.20;69.70;;;14.44;54.42;96310.34;5011886;28;20502;-43
2023/10/28 09:28:17;;;;;;;2.70;1.40;;;13.30;70.60;;;14.52;54.36;96310.91;5010305;28;20053;-43
2023/10/28 09:30:46;;;;;;;3.47;1.23;;;13.40;70.50;;;14.59;53.89;96315.44;5011080;28;20050;-46
2023/10/28 09:33:15;;;;;;;4.65;1.27;;;13.50;69.70;;;14.67;53.96;96315.94;5011163;28;20068;-45
2023/10/28 09:35:45;;;;;;;2.80;1.85;;;13.60;69.80;;;14.77;53.66;96316.28;5011610;28;20509;-48
2023/10/28 09:38:13;;;;;;;1.65;1.55;;;13.60;69.60;;;14.86;53.51;96313.31;5011376;28;20072;-46
2023/10/28 09:40:41;;;;;;;4.07;2.00;;;13.70;69.00;;;14.86;53.17;96314.13;5011044;28;20044;-45
2023/10/28 09:43:10;;;;;;;2.95;1.00;;;13.70;68.70;;;14.91;53.54;96318.84;5008342;28;20045;-48
2023/10/28 09:45:38;;;;;;;2.47;1.20;;;13.70;67.60;;;14.96;53.14;96321.66;5010149;28;20038;-45
2023/10/28 09:48:17;;;;;;;2.55;1.52;;;13.70;69.10;;;15.01;52.97;96313.81;5018033;28;20050;-45
2023/10/28 09:50:50;;;;;;;3.30;1.38;;;13.80;69.00;;;15.06;53.09;96313.97;5003495;28;20057;-43
2023/10/28 09:53:36;;;;;;;7.63;1.50;;;13.80;69.30;;;15.08;52.96;96311.03;5017969;28;20422;-45
2023/10/28 09:56:05;;;;;;;2.35;1.13;;;13.90;68.60;;;15.15;52.99;96315.28;5006907;28;20064;-45
2023/10/28 09:58:41;;;;;;;1.83;1.30;;;13.90;69.00;;;15.14;52.71;96310.97;5005203;28;20038;-45
2023/10/28 10:01:25;;;;;;;2.63;1.20;;;13.90;67.30;;;15.16;52.76;96318.81;5014979;28;20444;-44
2023/10/28 10:04:24;;;;;;;4.97;1.48;;;13.90;68.50;;;15.19;52.96;96317.53;5003547;28;20493;-44
2023/10/28 10:06:52;;;;;;;3.30;1.55;;;13.90;69.20;;;15.16;52.82;96319.63;5012310;28;20049;-45
2023/10/28 10:09:20;;;;;;;5.97;1.52;;;13.90;68.70;;;15.22;52.71;96314.41;5011097;28;20418;-46
2023/10/28 10:11:49;;;;;;;2.00;1.00;;;14.00;68.30;;;15.21;52.14;96320.81;5010863;28;20053;-45
2023/10/28 10:14:19;;;;;;;2.47;1.15;;;13.90;66.20;;;15.20;51.37;96322.69;5017811;28;20450;-43
2023/10/28 10:16:59;;;;;;;2.90;1.10;;;13.90;65.80;;;15.24;51.12;96321.19;5010992;28;20049;-42
2023/10/28 10:19:36;;;;;;;2.20;1.00;;;14.00;65.70;;;15.25;51.71;96325.50;5017613;28;20498;-45
2023/10/28 10:22:06;;;;;;;5.05;1.67;;;14.00;65.50;;;15.25;51.40;96317.44;5011165;28;20417;-45
2023/10/28 10:24:34;;;;;;;2.55;1.30;;;14.00;65.20;;;15.29;51.83;96329.38;5010916;28;20317;-49
2023/10/28 10:27:04;;;;;;;5.70;1.80;;;14.10;65.40;;;15.21;51.74;96324.31;5011008;28;20512;-43